Latest Weather Observations for Laverton

IDW60801

Issued at 9:03 pm WST Monday 18 June 2018 (issued every 10 minutes, with the page automatically refreshed every 10 minutes)

About weather observations | Map of weather stations | Latest weather observations for WA | Other Formats
Station Details ID: 012305 Name: LAVERTON AERO Lat: -28.61 Lon: 122.42 Height: 464.3 m
Data from the previous 72 hours. | See also: Recent months at Laverton
Date/Time
WST
Temp
°C
App
Temp
°C
Dew
Point
°C
Rel
Hum
%
Delta-T
°C
Wind Press
QNH
hPa
Press
MSL
hPa
Rain since
9am
mm
Dir  Spd
km/h
Gust
km/h
Spd
kts
Gust
kts
18/09:00pm 12.8 10.8 10.0 83 1.5 NW 11 15 6 8 1021.4 1021.1 1.2
18/08:30pm 12.7 11.1 10.1 84 1.4 WNW 9 13 5 7 1021.6 1021.3 1.2
18/08:00pm 12.7 10.3 10.2 85 1.3 NNW 13 17 7 9 1021.5 1021.2 1.2
18/07:30pm 12.9 10.3 9.5 80 1.8 NNW 13 20 7 11 1021.4 1021.1 1.0
18/07:00pm 13.3 10.3 9.4 77 2.0 NW 15 19 8 10 1021.8 1021.5 0.8
18/06:30pm 13.0 10.1 9.8 81 1.7 N 15 19 8 10 1020.9 1020.6 0.8
18/06:00pm 14.3 11.6 8.9 70 2.8 NW 13 15 7 8 1021.1 1020.8 0.4
18/05:30pm 15.1 13.1 8.8 66 3.3 SW 9 13 5 7 1020.6 1020.3 0.0
18/05:00pm 16.2 13.7 6.6 53 4.8 WSW 9 11 5 6 1020.2 1019.9 0.0
18/04:30pm 17.2 15.1 6.7 50 5.3 WSW 7 9 4 5 1019.3 1019.0 0.0
18/04:00pm 18.4 15.1 2.3 34 7.5 WNW 9 15 5 8 1019.4 1019.1 0.0
18/03:30pm 19.2 14.5 1.2 30 8.3 NW 15 19 8 10 1018.9 1018.5 0.0
18/03:00pm 19.6 14.6 1.1 29 8.5 NW 17 26 9 14 1018.1 1017.8 0.0
18/02:30pm 19.6 14.9 1.1 29 8.5 NW 15 26 8 14 1018.8 1018.4 0.0
18/02:00pm 19.2 14.2 1.2 30 8.3 NNW 17 22 9 12 1018.9 1018.5 0.0
18/01:30pm 18.9 13.3 1.0 30 8.2 NNW 20 30 11 16 1018.6 1018.3 0.0
18/01:00pm 18.9 13.3 1.0 30 8.2 NNW 20 28 11 15 1019.1 1018.7 0.0
18/12:30pm 18.6 12.2 1.2 31 8.0 NNW 24 33 13 18 1019.4 1019.1 0.0
18/12:00pm 18.6 12.2 1.2 31 8.0 NNW 24 33 13 18 1019.8 1019.5 0.0
18/11:30am 18.3 11.6 1.3 32 7.8 N 26 39 14 21 1020.6 1020.3 0.0
18/11:00am 17.7 10.6 1.2 33 7.5 NNW 28 35 15 19 1021.3 1021.0 0.0
18/10:30am 17.3 9.4 0.9 33 7.4 NNW 32 46 17 25 1021.8 1021.5 0.0
18/10:21am 17.1 9.6 1.1 34 7.2 NNW 30 46 16 25 1021.8 1021.5 0.0
18/10:00am 16.5 10.6 1.4 36 6.8 NNW 22 28 12 15 1021.8 1021.5 0.0
18/09:30am 15.5 9.9 1.3 38 6.4 N 20 30 11 16 1021.4 1021.1 0.0
18/09:00am 15.2 8.0 1.0 38 6.3 N 28 43 15 23 1021.2 1020.9 0.0
18/08:30am 15.4 9.0 0.8 37 6.5 N 24 35 13 19 1021.1 1020.8 0.0
18/08:00am 14.4 7.2 1.0 40 5.9 N 28 41 15 22 1020.2 1019.9 0.0
18/07:30am 12.3 5.6 1.3 47 4.8 N 26 33 14 18 1020.3 1020.0 0.0
18/07:00am 10.8 5.2 1.4 52 4.0 N 20 26 11 14 1021.6 1021.3 0.0
18/06:30am 10.5 6.2 1.3 53 3.9 NNW 13 17 7 9 1021.8 1021.5 0.0
18/06:00am 11.0 5.6 1.0 50 4.3 N 19 24 10 13 1021.1 1020.8 0.0
18/05:30am 12.2 5.8 1.2 47 4.8 N 24 33 13 18 1020.2 1019.9 0.0
18/05:00am 12.3 5.1 1.0 46 4.9 N 28 39 15 21 1019.4 1019.1 0.0
18/04:30am 12.9 5.8 1.3 45 5.1 N 28 41 15 22 1020.2 1019.9 0.0
18/04:00am 12.6 5.9 1.3 46 4.9 N 26 33 14 18 1020.7 1020.4 0.0
18/03:30am 12.7 6.8 1.4 46 4.9 N 22 32 12 17 1021.4 1021.1 0.0
18/03:00am 11.9 5.9 1.0 47 4.7 NNE 22 32 12 17 1021.6 1021.3 0.0
18/02:30am 12.3 6.3 1.0 46 4.9 N 22 32 12 17 1021.5 1021.2 0.0
18/02:00am 12.9 6.5 1.0 44 5.2 NNE 24 33 13 18 1021.5 1021.2 0.0
18/01:30am 12.7 6.3 1.1 45 5.0 NNE 24 32 13 17 1022.0 1021.7 0.0
18/01:00am 13.0 6.9 0.7 43 5.3 NNE 22 33 12 18 1022.6 1022.3 0.0
18/12:30am 12.5 6.9 0.9 45 5.0 NNE 20 26 11 14 1022.5 1022.2 0.0
18/12:00am 12.9 7.8 1.0 44 5.2 NE 17 24 9 13 1022.6 1022.3 0.0
 
Date/Time
WST
Temp
°C
App
Temp
°C
Dew
Point
°C
Rel
Hum
%
Delta-T
°C
Wind Press
QNH
hPa
Press
MSL
hPa
Rain since
9am
mm
Dir  Spd
km/h
Gust
km/h
Spd
kts
Gust
kts
17/11:30pm 13.7 8.0 0.7 41 5.7 NE 20 28 11 15 1022.7 1022.4 0.0
17/11:00pm 14.3 8.2 0.6 39 6.0 NE 22 33 12 18 1022.7 1022.4 0.0
17/10:30pm 14.8 9.2 1.0 39 6.1 NE 20 28 11 15 1023.6 1023.3 0.0
17/10:00pm 14.2 9.2 1.2 41 5.7 NE 17 22 9 12 1023.6 1023.3 0.0
17/09:30pm 14.3 9.3 1.2 41 5.8 NE 17 20 9 11 1023.7 1023.4 0.0
17/09:00pm 14.5 9.4 0.7 39 6.0 NE 17 22 9 12 1023.7 1023.4 0.0
17/08:30pm 15.3 10.2 0.7 37 6.4 NE 17 20 9 11 1024.0 1023.7 0.0
17/08:00pm 15.7 10.7 1.1 37 6.5 NE 17 22 9 12 1024.0 1023.7 0.0
17/07:30pm 15.9 10.8 0.9 36 6.7 NE 17 20 9 11 1023.9 1023.6 0.0
17/07:00pm 15.6 11.0 1.4 38 6.3 NE 15 20 8 11 1023.9 1023.6 0.0
17/06:30pm 15.0 10.7 1.2 39 6.1 NE 13 17 7 9 1023.9 1023.6 0.0
17/06:00pm 15.2 10.9 1.0 38 6.3 NE 13 15 7 8 1023.8 1023.5 0.0
17/05:30pm 16.8 12.9 0.9 34 7.1 NE 11 13 6 7 1023.5 1023.2 0.0
17/05:00pm 18.8 14.0 0.4 29 8.3 NNE 15 22 8 12 1023.4 1023.1 0.0
17/04:30pm 20.2 15.0 0.1 26 9.1 N 17 22 9 12 1023.4 1023.1 0.0
17/04:00pm 20.8 15.4 1.1 27 9.1 NNE 19 24 10 13 1023.2 1023.0 0.0
17/03:30pm 21.1 16.2 1.9 28 9.1 NNE 17 26 9 14 1023.4 1023.1 0.0
17/03:00pm 21.1 16.2 1.9 28 9.1 NNE 17 26 9 14 1023.5 1023.2 0.0
17/02:30pm 21.1 15.6 1.9 28 9.1 NNE 20 30 11 16 1023.6 1023.3 0.0
17/02:00pm 20.9 15.7 2.2 29 8.9 NNE 19 32 10 17 1023.8 1023.5 0.0
17/01:30pm 21.1 16.3 2.4 29 9.0 NNE 17 22 9 12 1024.1 1023.8 0.0
17/01:00pm 20.7 15.2 2.0 29 8.8 NE 20 28 11 15 1024.5 1024.2 0.0
17/12:30pm 20.2 14.5 3.0 32 8.3 NNE 22 32 12 17 1024.9 1024.7 0.0
17/12:00pm 19.6 13.6 3.3 34 7.8 NNE 24 35 13 19 1025.5 1025.3 0.0
17/11:30am 18.8 12.1 3.8 37 7.3 NNE 28 37 15 20 1026.2 1025.9 0.0
17/11:00am 18.0 10.7 4.6 41 6.5 NNE 32 39 17 21 1026.7 1026.5 0.0
17/10:30am 17.4 10.6 5.0 44 6.1 NNE 30 41 16 22 1027.0 1026.8 0.0
17/10:00am 15.9 9.1 4.9 48 5.3 NNE 30 39 16 21 1027.4 1027.2 0.0
17/09:30am 14.9 8.9 5.1 52 4.7 NE 26 39 14 21 1027.7 1027.5 0.0
17/09:00am 13.6 7.9 5.0 56 4.1 NE 24 35 13 19 1028.1 1027.8 0.0
17/08:30am 11.9 5.9 5.1 63 3.2 NE 26 35 14 19 1028.0 1027.7 0.0
17/08:00am 10.8 5.9 5.1 68 2.6 NE 20 30 11 16 1027.9 1027.6 0.0
17/07:30am 9.2 4.9 5.2 76 1.9 ENE 17 24 9 13 1027.7 1027.5 0.0
17/07:00am 8.2 3.9 5.1 81 1.4 ENE 17 22 9 12 1027.4 1027.2 0.0
17/06:30am 8.3 4.0 5.1 80 1.5 ENE 17 24 9 13 1027.0 1026.8 0.0
17/06:00am 8.4 3.7 5.3 81 1.4 NE 19 24 10 13 1026.6 1026.4 0.0
17/05:30am 8.5 3.6 5.3 80 1.5 ENE 20 22 11 12 1026.7 1026.5 0.0
17/05:00am 8.7 3.9 5.4 80 1.5 ENE 20 26 11 14 1026.6 1026.4 0.0
17/04:30am 8.8 4.2 5.4 79 1.6 ENE 19 26 10 14 1026.8 1026.6 0.0
17/04:00am 9.1 4.5 5.5 78 1.7 ENE 19 24 10 13 1026.9 1026.7 0.0
17/03:30am 8.9 4.6 5.3 78 1.7 ENE 17 20 9 11 1027.0 1026.8 0.0
17/03:00am 9.2 4.9 5.2 76 1.8 ENE 17 24 9 13 1027.2 1027.0 0.0
17/02:30am 9.7 5.1 5.5 75 2.0 ENE 19 22 10 12 1027.2 1027.0 0.0
17/02:00am 9.5 5.2 5.3 75 1.9 ENE 17 22 9 12 1027.1 1026.9 0.0
17/01:30am 8.7 5.1 4.9 77 1.7 ENE 13 17 7 9 1027.2 1027.0 0.0
17/01:00am 8.3 4.6 4.5 77 1.7 ENE 13 17 7 9 1027.3 1027.1 0.0
17/12:30am 8.3 4.2 4.1 75 1.9 ENE 15 17 8 9 1027.4 1027.2 0.0
17/12:00am 8.8 4.7 4.4 74 2.0 ENE 15 17 8 9 1027.6 1027.4 0.0
 
Date/Time
WST
Temp
°C
App
Temp
°C
Dew
Point
°C
Rel
Hum
%
Delta-T
°C
Wind Press
QNH
hPa
Press
MSL
hPa
Rain since
9am
mm
Dir  Spd
km/h
Gust
km/h
Spd
kts
Gust
kts
16/11:30pm 9.2 4.7 4.4 72 2.2 E 17 19 9 10 1027.6 1027.4 0.0
16/11:00pm 9.5 5.1 4.5 71 2.3 E 17 19 9 10 1027.9 1027.6 0.0
16/10:30pm 9.3 5.2 4.5 72 2.2 E 15 17 8 9 1028.1 1027.8 0.0
16/10:00pm 9.8 6.1 4.6 70 2.4 E 13 15 7 8 1028.2 1027.9 0.0
16/09:30pm 9.1 5.8 4.3 72 2.2 E 11 13 6 7 1028.1 1027.8 0.0
16/09:00pm 9.6 6.2 4.0 68 2.5 E 11 11 6 6 1028.2 1027.9 0.0
16/08:30pm 10.9 7.1 4.1 63 3.1 E 13 17 7 9 1028.1 1027.8 0.0
16/08:00pm 10.7 7.3 4.0 63 3.0 E 11 13 6 7 1028.1 1027.8 0.0
16/07:30pm 11.0 7.6 4.0 62 3.2 ENE 11 13 6 7 1027.7 1027.5 0.0
16/07:00pm 12.0 8.2 4.0 58 3.7 E 13 15 7 8 1027.6 1027.4 0.0
16/06:30pm 13.0 10.0 3.9 54 4.2 ENE 9 13 5 7 1027.6 1027.4 0.0
16/06:00pm 14.5 11.1 3.9 49 4.9 ENE 11 15 6 8 1027.4 1027.2 0.0
16/05:30pm 15.5 11.7 3.9 46 5.5 NE 13 17 7 9 1027.1 1026.9 0.0
16/05:00pm 16.8 12.7 4.2 43 6.0 ENE 15 22 8 12 1027.0 1026.8 0.0
16/04:30pm 17.7 12.6 3.9 40 6.6 ENE 20 28 11 15 1026.8 1026.6 0.0
16/04:00pm 18.2 13.2 3.7 38 6.9 ENE 19 24 10 13 1026.7 1026.5 0.0
16/03:30pm 19.0 13.9 4.0 37 7.3 NE 20 30 11 16 1026.8 1026.6 0.0
16/03:00pm 18.9 13.8 4.3 38 7.1 ENE 20 32 11 17 1026.7 1026.5 0.0
16/02:30pm 18.9 13.8 4.3 38 7.1 ENE 20 32 11 17 1027.1 1026.9 0.0
16/02:00pm 18.6 13.6 4.8 40 6.8 ENE 20 32 11 17 1027.2 1027.0 0.0
16/01:30pm 18.7 13.9 4.5 39 7.0 ENE 19 30 10 16 1027.6 1027.4 0.0
16/01:00pm 18.0 13.2 4.9 42 6.4 NE 19 32 10 17 1028.2 1027.9 0.0
16/12:30pm 18.2 13.6 5.4 43 6.4 ENE 19 28 10 15 1028.4 1028.1 0.0
16/12:00pm 17.5 12.9 5.4 45 5.9 NE 19 32 10 17 1028.7 1028.5 0.0
16/11:30am 17.6 13.1 6.2 47 5.7 NE 19 28 10 15 1029.2 1029.0 0.0
16/11:00am 17.0 11.9 5.9 48 5.5 ENE 22 30 12 16 1029.6 1029.4 0.0
16/10:30am 16.2 10.4 6.1 51 5.0 ENE 26 35 14 19 1029.8 1029.6 0.0
16/10:00am 15.3 10.7 6.6 56 4.3 E 20 28 11 15 1030.0 1029.8 0.0
16/09:30am 14.6 10.3 7.2 61 3.7 NE 19 24 10 13 1030.2 1029.9 0.0
16/09:00am 13.3 8.8 6.9 65 3.1 NE 20 28 11 15 1030.3 1030.1 0.0
16/08:30am 12.3 8.7 6.8 69 2.7 NE 15 24 8 13 1030.0 1029.8 0.0
16/08:00am 10.3 7.0 6.5 77 1.8 E 13 20 7 11 1029.7 1029.5 0.0
16/07:30am 7.8 4.8 5.8 87 0.9 E 11 15 6 8 1029.4 1029.2 0.0
16/07:00am 6.5 2.6 5.3 92 0.5 E 15 17 8 9 1029.2 1029.0 0.0
16/06:30am 6.4 2.4 5.0 91 0.6 E 15 17 8 9 1029.0 1028.8 0.0
16/06:00am 6.3 2.0 5.1 92 0.5 E 17 17 9 9 1028.8 1028.6 0.0
16/05:30am 6.2 2.2 5.0 92 0.5 E 15 17 8 9 1028.7 1028.5 0.0
16/05:00am 5.8 2.1 4.6 92 0.5 ENE 13 15 7 8 1028.7 1028.5 0.0
16/04:30am 6.2 2.9 4.7 90 0.7 ENE 11 13 6 7 1028.5 1028.3 0.0
16/04:00am 6.6 3.0 4.9 89 0.8 E 13 15 7 8 1028.4 1028.1 0.0
16/03:30am 6.6 3.0 4.9 89 0.8 ENE 13 13 7 7 1028.2 1027.9 0.0
16/03:00am 7.2 3.6 5.0 86 1.0 ENE 13 15 7 8 1028.2 1027.9 0.0
16/02:30am 7.9 4.0 5.4 84 1.1 E 15 17 8 9 1028.3 1028.0 0.0
16/02:00am 7.6 4.4 4.9 83 1.2 ENE 11 13 6 7 1028.4 1028.1 0.0
16/01:30am 8.1 4.2 5.4 83 1.2 ENE 15 15 8 8 1028.5 1028.3 0.0
16/01:00am 7.8 4.2 4.9 82 1.3 ENE 13 13 7 7 1028.5 1028.3 0.0
16/12:30am 8.6 5.5 5.4 80 1.5 ENE 11 13 6 7 1028.5 1028.3 0.0
16/12:00am 9.6 6.1 5.6 76 1.9 E 13 13 7 7 1028.6 1028.4 0.0
 
Date/Time
WST
Temp
°C
App
Temp
°C
Dew
Point
°C
Rel
Hum
%
Delta-T
°C
Wind Press
QNH
hPa
Press
MSL
hPa
Rain since
9am
mm
Dir  Spd
km/h
Gust
km/h
Spd
kts
Gust
kts
15/11:30pm 10.2 7.2 5.8 74 2.1 E 11 13 6 7 1028.6 1028.4 0.0
15/11:00pm 11.6 8.2 6.1 69 2.6 E 13 15 7 8 1028.7 1028.5 0.0
15/10:30pm 11.7 8.3 6.0 68 2.7 E 13 17 7 9 1029.0 1028.8 0.0
15/10:00pm 11.6 8.6 5.9 68 2.7 E 11 17 6 9 1029.1 1028.9 0.0
15/09:30pm 11.3 8.3 5.8 69 2.6 E 11 15 6 8 1029.0 1028.8 0.0

Other Formats:

Comma delimited format used in spreadsheet applications
http://www.bom.gov.au/fwo/IDW60801/IDW60801.94449.axf

JavaScript Object Notation format (JSON) in row-major order
http://www.bom.gov.au/fwo/IDW60801/IDW60801.94449.json